Time;durP1;ratioP1;P1;durP2;ratioP2;P2;SDS_P1;SDS_P2;PMS_P1;PMS_P2;Temp;Humidity;BMP_temperature;BMP_pressure;BME280_temperature;BME280_humidity;BME280_pressure;Samples;Min_cycle;Max_cycle;Signal;HPM_P1;HPM_P2
2023/07/11 00:02:04;;;;;;;5.70;2.25;;;;;;;;;;5132793;27;20542;-76
2023/07/11 00:04:31;;;;;;;7.40;2.30;;;;;;;;;;5132598;27;20280;-77
2023/07/11 00:06:59;;;;;;;12.18;2.80;;;;;;;;;;5132348;27;20287;-77
2023/07/11 00:09:26;;;;;;;7.93;2.00;;;;;;;;;;5132717;27;20280;-75
2023/07/11 00:11:53;;;;;;;6.15;2.22;;;;;;;;;;5132124;27;20224;-76
2023/07/11 00:14:20;;;;;;;5.78;1.80;;;;;;;;;;5132521;27;20227;-75
2023/07/11 00:16:49;;;;;;;4.10;2.38;;;;;;;;;;5132288;27;20223;-75
2023/07/11 00:19:19;;;;;;;5.00;2.28;;;;;;;;;;5131138;27;20197;-74
2023/07/11 00:21:47;;;;;;;6.35;2.00;;;;;;;;;;5132686;27;20283;-76
2023/07/11 00:24:14;;;;;;;5.63;1.88;;;;;;;;;;5132048;27;20279;-75
2023/07/11 00:26:41;;;;;;;6.15;2.28;;;;;;;;;;5131954;27;20207;-76
2023/07/11 00:29:16;;;;;;;6.30;2.00;;;;;;;;;;5132287;27;20199;-75
2023/07/11 00:31:43;;;;;;;6.85;2.47;;;;;;;;;;5132017;27;20811;-76
2023/07/11 00:34:11;;;;;;;6.25;2.20;;;;;;;;;;5132303;27;20288;-75
2023/07/11 00:36:39;;;;;;;4.43;2.47;;;;;;;;;;5132242;27;20220;-75
2023/07/11 00:39:06;;;;;;;5.18;2.47;;;;;;;;;;5131872;27;20292;-75
2023/07/11 00:41:33;;;;;;;5.95;2.25;;;;;;;;;;5132299;27;20203;-76
2023/07/11 00:44:00;;;;;;;5.15;2.50;;;;;;;;;;5131930;27;20225;-76
2023/07/11 00:46:28;;;;;;;4.15;2.65;;;;;;;;;;5131953;28;20215;-76
2023/07/11 00:48:56;;;;;;;5.55;2.50;;;;;;;;;;5131653;27;20228;-75
2023/07/11 00:51:28;;;;;;;7.00;2.60;;;;;;;;;;5131508;28;20323;-76
2023/07/11 00:53:55;;;;;;;7.90;2.60;;;;;;;;;;5131877;28;20643;-75
2023/07/11 00:56:24;;;;;;;4.63;2.50;;;;;;;;;;5131832;28;20681;-75
2023/07/11 00:58:53;;;;;;;7.68;2.35;;;;;;;;;;5134210;27;20217;-75
2023/07/11 01:01:20;;;;;;;7.05;2.60;;;;;;;;;;5136437;27;20193;-74
2023/07/11 01:03:49;;;;;;;5.95;2.28;;;;;;;;;;5136146;27;20197;-75
2023/07/11 01:06:17;;;;;;;7.30;2.63;;;;;;;;;;5135957;27;20272;-75
2023/07/11 01:08:46;;;;;;;5.93;2.40;;;;;;;;;;5135897;27;20192;-75
2023/07/11 01:11:14;;;;;;;6.47;2.45;;;;;;;;;;5136172;27;20294;-75
2023/07/11 01:13:41;;;;;;;13.40;2.95;;;;;;;;;;5136193;27;20213;-76
2023/07/11 01:16:09;;;;;;;7.82;2.80;;;;;;;;;;5136359;27;20288;-75
2023/07/11 01:18:36;;;;;;;4.93;2.63;;;;;;;;;;5135601;27;20271;-75
2023/07/11 01:21:04;;;;;;;7.25;2.83;;;;;;;;;;5136139;27;20291;-76
2023/07/11 01:23:33;;;;;;;9.57;2.47;;;;;;;;;;5135503;27;20612;-75
2023/07/11 01:26:01;;;;;;;7.60;2.90;;;;;;;;;;5135957;27;20228;-75
2023/07/11 01:28:29;;;;;;;5.05;2.60;;;;;;;;;;5135830;27;21007;-75
2023/07/11 01:30:56;;;;;;;6.68;2.55;;;;;;;;;;5135990;27;20332;-75
2023/07/11 01:33:24;;;;;;;6.63;2.60;;;;;;;;;;5135426;27;20240;-75
2023/07/11 01:35:52;;;;;;;7.53;2.50;;;;;;;;;;5135361;27;20193;-76
2023/07/11 01:38:20;;;;;;;10.07;3.13;;;;;;;;;;5135189;27;20195;-75
2023/07/11 01:40:48;;;;;;;8.38;2.85;;;;;;;;;;5135295;27;20203;-76
2023/07/11 01:43:17;;;;;;;11.82;3.35;;;;;;;;;;5135334;27;20196;-76
2023/07/11 01:45:44;;;;;;;7.83;2.73;;;;;;;;;;5135994;27;20280;-76
2023/07/11 01:48:11;;;;;;;7.75;2.85;;;;;;;;;;5135322;27;20272;-75
2023/07/11 01:50:38;;;;;;;8.20;2.80;;;;;;;;;;5134635;27;20229;-76
2023/07/11 01:53:05;;;;;;;8.20;3.00;;;;;;;;;;5133529;28;20280;-75
2023/07/11 01:55:33;;;;;;;9.93;3.10;;;;;;;;;;5134184;28;20644;-75
2023/07/11 01:58:01;;;;;;;7.50;2.85;;;;;;;;;;5133718;28;20280;-75
2023/07/11 02:00:28;;;;;;;6.40;2.97;;;;;;;;;;5134082;27;20192;-75
2023/07/11 02:02:55;;;;;;;8.77;3.25;;;;;;;;;;5133919;28;20645;-75
2023/07/11 02:05:23;;;;;;;8.93;3.53;;;;;;;;;;5133676;28;20635;-75
2023/07/11 02:07:50;;;;;;;8.30;2.80;;;;;;;;;;5133424;27;20557;-75
2023/07/11 02:10:17;;;;;;;7.10;3.17;;;;;;;;;;5133462;27;20281;-75
2023/07/11 02:12:44;;;;;;;6.97;2.87;;;;;;;;;;5133271;27;20327;-75
2023/07/11 02:15:13;;;;;;;7.37;3.00;;;;;;;;;;5133481;28;20292;-76
2023/07/11 02:17:40;;;;;;;11.38;3.17;;;;;;;;;;5134094;28;20197;-76
2023/07/11 02:20:09;;;;;;;7.63;3.15;;;;;;;;;;5133352;28;20189;-76
2023/07/11 02:22:36;;;;;;;5.60;3.13;;;;;;;;;;5133287;27;20918;-76
2023/07/11 02:25:04;;;;;;;8.43;3.27;;;;;;;;;;5133500;28;20292;-76
2023/07/11 02:27:31;;;;;;;6.95;3.05;;;;;;;;;;5133622;28;20556;-75
2023/07/11 02:29:58;;;;;;;8.70;3.50;;;;;;;;;;5133251;28;20277;-75
2023/07/11 02:32:27;;;;;;;6.57;2.97;;;;;;;;;;5133178;28;20241;-76
2023/07/11 02:34:54;;;;;;;8.90;3.37;;;;;;;;;;5133095;28;20203;-76
2023/07/11 02:37:21;;;;;;;6.70;2.90;;;;;;;;;;5133183;28;20627;-75
2023/07/11 02:39:49;;;;;;;8.37;3.40;;;;;;;;;;5133130;28;20634;-75
2023/07/11 02:42:16;;;;;;;8.30;2.97;;;;;;;;;;5133076;27;20228;-75
2023/07/11 02:44:43;;;;;;;9.67;3.53;;;;;;;;;;5132895;28;20197;-75
2023/07/11 02:47:13;;;;;;;6.80;3.10;;;;;;;;;;5133042;28;20276;-75
2023/07/11 02:49:42;;;;;;;9.77;3.47;;;;;;;;;;5133203;27;20224;-76
2023/07/11 02:52:10;;;;;;;7.47;3.47;;;;;;;;;;5094315;27;1106769;-75
2023/07/11 02:54:38;;;;;;;6.87;3.63;;;;;;;;;;5133969;27;20223;-75
2023/07/11 02:57:07;;;;;;;5.70;3.43;;;;;;;;;;5133780;27;20634;-75
2023/07/11 02:59:34;;;;;;;6.20;2.90;;;;;;;;;;5133545;27;20244;-75
2023/07/11 03:02:01;;;;;;;8.17;3.70;;;;;;;;;;5133819;27;20760;-75
2023/07/11 03:04:29;;;;;;;8.60;3.20;;;;;;;;;;5133781;27;20622;-75
2023/07/11 03:06:57;;;;;;;8.07;3.50;;;;;;;;;;5133668;27;20656;-76
2023/07/11 03:09:25;;;;;;;9.63;3.80;;;;;;;;;;5133951;27;20203;-74
2023/07/11 03:11:52;;;;;;;5.93;3.57;;;;;;;;;;5133606;27;20227;-75
2023/07/11 03:14:20;;;;;;;8.93;3.80;;;;;;;;;;5133982;27;20225;-76
2023/07/11 03:16:50;;;;;;;10.30;3.70;;;;;;;;;;5133463;27;20284;-76
2023/07/11 03:19:17;;;;;;;6.07;3.23;;;;;;;;;;5133276;27;20223;-75
2023/07/11 03:21:45;;;;;;;9.47;3.33;;;;;;;;;;5132924;27;20236;-76
2023/07/11 03:24:13;;;;;;;6.13;3.10;;;;;;;;;;5133494;27;20242;-75
2023/07/11 03:26:41;;;;;;;5.03;3.37;;;;;;;;;;5133399;27;20197;-75
2023/07/11 03:29:08;;;;;;;7.83;3.70;;;;;;;;;;5133218;27;20220;-76
2023/07/11 03:31:36;;;;;;;8.77;3.63;;;;;;;;;;5133263;27;20224;-76
2023/07/11 03:34:03;;;;;;;8.63;3.53;;;;;;;;;;5132747;27;20300;-76
2023/07/11 03:36:30;;;;;;;7.07;3.67;;;;;;;;;;5133764;27;20280;-75
2023/07/11 03:38:57;;;;;;;9.60;3.67;;;;;;;;;;5132663;27;20217;-75
2023/07/11 03:41:26;;;;;;;6.37;3.57;;;;;;;;;;5133257;27;20284;-75
2023/07/11 03:43:53;;;;;;;7.30;3.27;;;;;;;;;;5132921;27;20220;-76
2023/07/11 03:46:20;;;;;;;7.87;3.60;;;;;;;;;;5132880;27;20196;-74
2023/07/11 03:48:47;;;;;;;7.87;3.80;;;;;;;;;;5132485;27;20288;-76
2023/07/11 03:51:14;;;;;;;6.67;3.50;;;;;;;;;;5132935;27;20316;-75
2023/07/11 03:53:42;;;;;;;7.37;3.40;;;;;;;;;;5132720;27;20216;-76
2023/07/11 03:56:09;;;;;;;8.90;3.70;;;;;;;;;;5132894;27;20192;-75
2023/07/11 03:58:38;;;;;;;8.23;4.13;;;;;;;;;;5132526;27;20243;-75
2023/07/11 04:01:05;;;;;;;8.00;3.97;;;;;;;;;;5132768;27;20233;-75
2023/07/11 04:03:32;;;;;;;4.73;3.17;;;;;;;;;;5132594;27;20296;-75
2023/07/11 04:05:59;;;;;;;5.63;3.70;;;;;;;;;;5132590;27;20285;-76
2023/07/11 04:08:26;;;;;;;8.47;4.27;;;;;;;;;;5132557;27;20280;-75
2023/07/11 04:10:53;;;;;;;10.47;4.07;;;;;;;;;;5132502;27;20313;-76
2023/07/11 04:13:21;;;;;;;7.00;3.40;;;;;;;;;;5132977;27;20265;-75
2023/07/11 04:15:49;;;;;;;8.47;3.47;;;;;;;;;;5132381;27;20193;-75
2023/07/11 04:18:17;;;;;;;6.67;4.13;;;;;;;;;;5131725;27;20213;-75
2023/07/11 04:20:45;;;;;;;12.50;4.40;;;;;;;;;;5132635;27;20193;-75
2023/07/11 04:23:12;;;;;;;7.83;4.47;;;;;;;;;;5132196;27;20542;-75
2023/07/11 04:25:40;;;;;;;10.63;3.97;;;;;;;;;;5132440;27;20279;-75
2023/07/11 04:28:07;;;;;;;8.83;4.20;;;;;;;;;;5132272;27;20279;-76
2023/07/11 04:30:35;;;;;;;8.50;4.13;;;;;;;;;;5132455;27;20292;-76
2023/07/11 04:33:04;;;;;;;7.00;4.37;;;;;;;;;;5132474;27;20256;-76
2023/07/11 04:35:31;;;;;;;12.07;4.30;;;;;;;;;;5132196;27;20216;-76
2023/07/11 04:37:58;;;;;;;8.17;4.40;;;;;;;;;;5132006;27;20700;-75
2023/07/11 04:40:26;;;;;;;10.60;4.53;;;;;;;;;;5132240;27;20246;-75
2023/07/11 04:42:53;;;;;;;11.33;4.50;;;;;;;;;;5132005;27;20288;-75
2023/07/11 04:45:20;;;;;;;8.90;4.00;;;;;;;;;;5131939;27;20225;-75
2023/07/11 04:47:47;;;;;;;7.70;3.97;;;;;;;;;;5132129;27;20246;-76
2023/07/11 04:50:16;;;;;;;8.47;3.97;;;;;;;;;;5131792;27;20197;-75
2023/07/11 04:52:43;;;;;;;10.43;4.63;;;;;;;;;;5131558;27;20231;-75
2023/07/11 04:55:10;;;;;;;9.67;4.07;;;;;;;;;;5132305;27;20200;-75
2023/07/11 04:57:37;;;;;;;8.47;4.50;;;;;;;;;;5132774;27;20310;-75
2023/07/11 05:00:06;;;;;;;10.10;4.83;;;;;;;;;;5131314;27;20284;-75
2023/07/11 05:02:33;;;;;;;10.27;5.00;;;;;;;;;;5132246;27;20575;-75
2023/07/11 05:05:00;;;;;;;9.50;4.93;;;;;;;;;;5132006;27;20220;-74
2023/07/11 05:07:29;;;;;;;8.80;4.93;;;;;;;;;;5131653;27;20199;-75
2023/07/11 05:09:56;;;;;;;12.63;4.80;;;;;;;;;;5132256;27;20248;-75
2023/07/11 05:12:23;;;;;;;10.10;4.80;;;;;;;;;;5131885;27;20289;-75
2023/07/11 05:14:50;;;;;;;10.70;4.68;;;;;;;;;;5131324;27;20225;-75
2023/07/11 05:17:17;;;;;;;8.57;4.97;;;;;;;;;;5111217;28;20617;-74
2023/07/11 05:19:45;;;;;;;9.32;5.05;;;;;;;;;;5110836;28;20232;-75
2023/07/11 05:22:12;;;;;;;10.27;4.63;;;;;;;;;;5111158;28;20229;-75
2023/07/11 05:24:40;;;;;;;14.38;5.15;;;;;;;;;;5111005;28;20686;-74
2023/07/11 05:27:07;;;;;;;10.07;4.90;;;;;;;;;;5111837;28;20228;-74
2023/07/11 05:29:36;;;;;;;13.05;5.15;;;;;;;;;;5110871;28;20300;-74
2023/07/11 05:32:04;;;;;;;10.93;5.38;;;;;;;;;;5130633;28;20240;-74
2023/07/11 05:34:34;;;;;;;10.10;5.38;;;;;;;;;;5131718;27;20657;-74
2023/07/11 05:37:01;;;;;;;9.48;5.30;;;;;;;;;;5132067;27;20643;-74
2023/07/11 05:39:28;;;;;;;7.78;4.80;;;;;;;;;;5131460;27;20681;-74
2023/07/11 05:41:57;;;;;;;10.20;4.82;;;;;;;;;;5131606;27;20247;-76
2023/07/11 05:44:26;;;;;;;8.43;4.70;;;;;;;;;;5132912;27;20204;-76
2023/07/11 05:46:53;;;;;;;8.63;4.35;;;;;;;;;;5135305;27;20742;-76
2023/07/11 05:49:20;;;;;;;10.00;4.55;;;;;;;;;;5135350;27;20708;-75
2023/07/11 05:51:47;;;;;;;10.75;4.93;;;;;;;;;;5134836;27;20753;-75
2023/07/11 05:54:14;;;;;;;8.73;4.13;;;;;;;;;;5135368;27;20292;-75
2023/07/11 05:56:42;;;;;;;7.78;4.63;;;;;;;;;;5135252;27;20284;-76
2023/07/11 05:59:10;;;;;;;8.32;4.05;;;;;;;;;;5134697;27;20289;-77
2023/07/11 06:01:38;;;;;;;12.43;4.40;;;;;;;;;;5135239;27;20237;-76
2023/07/11 06:04:06;;;;;;;9.25;4.20;;;;;;;;;;5134909;27;20730;-76
2023/07/11 06:06:35;;;;;;;6.53;3.63;;;;;;;;;;5135162;27;20296;-75
2023/07/11 06:09:02;;;;;;;10.05;4.60;;;;;;;;;;5134944;27;20204;-76
2023/07/11 06:11:29;;;;;;;6.82;3.60;;;;;;;;;;5135281;27;20197;-76
2023/07/11 06:13:56;;;;;;;7.32;3.70;;;;;;;;;;5134845;27;20263;-76
2023/07/11 06:16:25;;;;;;;9.48;3.83;;;;;;;;;;5135173;27;20328;-77
2023/07/11 06:18:53;;;;;;;6.03;3.40;;;;;;;;;;5134515;27;20287;-76
2023/07/11 06:21:20;;;;;;;9.27;3.90;;;;;;;;;;5135214;27;20628;-75
2023/07/11 06:23:48;;;;;;;7.18;3.60;;;;;;;;;;5131587;27;20201;-76
2023/07/11 06:26:15;;;;;;;8.43;3.70;;;;;;;;;;5131096;27;20200;-76
2023/07/11 06:28:42;;;;;;;8.52;3.60;;;;;;;;;;4776821;27;10000564;-76
2023/07/11 06:31:11;;;;;;;7.05;3.28;;;;;;;;;;5130973;27;20966;-76
2023/07/11 06:33:40;;;;;;;6.05;3.20;;;;;;;;;;5131577;27;20228;-76
2023/07/11 06:36:08;;;;;;;8.35;3.45;;;;;;;;;;5131013;27;20283;-77
2023/07/11 06:38:35;;;;;;;7.90;3.20;;;;;;;;;;5131155;27;20301;-76
2023/07/11 06:41:03;;;;;;;5.95;2.85;;;;;;;;;;5131190;27;20265;-75
2023/07/11 06:43:31;;;;;;;6.75;3.08;;;;;;;;;;5124440;27;20236;-76
2023/07/11 06:45:59;;;;;;;4.80;2.70;;;;;;;;;;5121457;27;20237;-76
2023/07/11 06:48:27;;;;;;;7.20;3.22;;;;;;;;;;5113686;28;20194;-75
2023/07/11 06:50:57;;;;;;;6.53;2.95;;;;;;;;;;5113512;28;20316;-76
2023/07/11 06:53:27;;;;;;;5.38;2.90;;;;;;;;;;5113660;28;20226;-76
2023/07/11 06:55:54;;;;;;;5.20;2.80;;;;;;;;;;5115576;27;20198;-77
2023/07/11 06:58:22;;;;;;;5.20;2.72;;;;;;;;;;5121352;27;20288;-76
2023/07/11 07:00:53;;;;;;;5.50;2.70;;;;;;;;;;5127780;27;20216;-76
2023/07/11 07:03:20;;;;;;;6.15;2.83;;;;;;;;;;5133461;27;20197;-77
2023/07/11 07:05:50;;;;;;;2.72;1.92;;;;;;;;;;5132041;27;20237;-77
2023/07/11 07:08:19;;;;;;;5.90;2.33;;;;;;;;;;5133498;27;20787;-77
2023/07/11 07:10:47;;;;;;;6.72;2.35;;;;;;;;;;5133384;27;20292;-77
2023/07/11 07:13:15;;;;;;;3.85;2.50;;;;;;;;;;5115049;27;20228;-78
2023/07/11 07:15:42;;;;;;;4.63;2.17;;;;;;;;;;5118754;27;20237;-77
2023/07/11 07:18:09;;;;;;;3.10;2.20;;;;;;;;;;5132729;27;20308;-79
2023/07/11 07:20:36;;;;;;;4.82;2.15;;;;;;;;;;5133138;27;20200;-75
2023/07/11 07:23:04;;;;;;;5.45;2.13;;;;;;;;;;5133114;27;20265;-77
2023/07/11 07:25:33;;;;;;;4.25;2.30;;;;;;;;;;5133342;27;20192;-77
2023/07/11 07:28:00;;;;;;;3.47;2.20;;;;;;;;;;5133938;27;20200;-77
2023/07/11 07:30:27;;;;;;;5.38;2.10;;;;;;;;;;5133258;27;20726;-77
2023/07/11 07:32:55;;;;;;;4.35;2.08;;;;;;;;;;5135219;27;20287;-77
2023/07/11 07:35:22;;;;;;;4.85;2.03;;;;;;;;;;5130456;27;20642;-77
2023/07/11 07:37:49;;;;;;;3.60;1.67;;;;;;;;;;5133044;27;20221;-77
2023/07/11 07:40:17;;;;;;;3.22;1.58;;;;;;;;;;5132612;27;20300;-77
2023/07/11 07:42:46;;;;;;;5.68;1.92;;;;;;;;;;5132904;27;20228;-76
2023/07/11 07:45:13;;;;;;;3.40;1.50;;;;;;;;;;5133501;27;20207;-77
2023/07/11 07:47:40;;;;;;;6.28;1.77;;;;;;;;;;5133310;27;20197;-77
2023/07/11 07:50:08;;;;;;;4.22;1.60;;;;;;;;;;5132419;27;20239;-77
2023/07/11 07:52:35;;;;;;;5.05;1.55;;;;;;;;;;5132708;27;20288;-77
2023/07/11 07:55:02;;;;;;;5.18;1.70;;;;;;;;;;5129886;27;20741;-77
2023/07/11 07:57:29;;;;;;;4.28;1.55;;;;;;;;;;5132703;27;20573;-77
2023/07/11 07:59:58;;;;;;;3.22;1.60;;;;;;;;;;5132543;27;20280;-77
2023/07/11 08:02:25;;;;;;;4.57;1.60;;;;;;;;;;5133422;27;20287;-77
2023/07/11 08:04:52;;;;;;;3.85;1.42;;;;;;;;;;5144520;27;20188;-77
2023/07/11 08:07:19;;;;;;;4.72;1.92;;;;;;;;;;5152630;27;20193;-76
2023/07/11 08:09:49;;;;;;;5.18;1.58;;;;;;;;;;5153041;27;20283;-78
2023/07/11 08:12:16;;;;;;;6.00;1.27;;;;;;;;;;5142371;27;20201;-77
2023/07/11 08:14:43;;;;;;;2.45;1.15;;;;;;;;;;5132143;27;20225;-77
2023/07/11 08:17:11;;;;;;;3.25;1.30;;;;;;;;;;5132835;27;20250;-77
2023/07/11 08:19:39;;;;;;;3.60;1.35;;;;;;;;;;5133075;27;20309;-77
2023/07/11 08:22:07;;;;;;;3.47;1.25;;;;;;;;;;5132030;27;20217;-77
2023/07/11 08:24:34;;;;;;;2.50;1.10;;;;;;;;;;5130209;27;21525;-77
2023/07/11 08:27:01;;;;;;;3.72;1.85;;;;;;;;;;5118517;27;20705;-77
2023/07/11 08:29:28;;;;;;;1.67;1.10;;;;;;;;;;5131634;27;20279;-77
2023/07/11 08:31:58;;;;;;;5.57;1.38;;;;;;;;;;5132645;27;20192;-77
2023/07/11 08:34:26;;;;;;;3.50;1.20;;;;;;;;;;5132537;27;20228;-78
2023/07/11 08:36:53;;;;;;;5.78;1.50;;;;;;;;;;5132371;27;20946;-77
2023/07/11 08:39:21;;;;;;;2.78;1.17;;;;;;;;;;5132207;27;20743;-77
2023/07/11 08:41:49;;;;;;;3.80;1.23;;;;;;;;;;5132788;27;20193;-78
2023/07/11 08:44:18;;;;;;;2.40;1.08;;;;;;;;;;5132318;27;20280;-78
2023/07/11 08:46:47;;;;;;;3.75;1.10;;;;;;;;;;5132599;27;20277;-79
2023/07/11 08:49:16;;;;;;;4.78;1.60;;;;;;;;;;5132209;28;20189;-77
2023/07/11 08:51:46;;;;;;;4.53;1.40;;;;;;;;;;5131857;28;20773;-78
2023/07/11 08:54:15;;;;;;;2.60;1.13;;;;;;;;;;5131958;27;20224;-77
2023/07/11 08:56:44;;;;;;;3.92;1.50;;;;;;;;;;5131897;27;20673;-77
2023/07/11 08:59:15;;;;;;;2.63;1.30;;;;;;;;;;5132370;28;20280;-77
2023/07/11 09:01:45;;;;;;;3.13;1.20;;;;;;;;;;5132468;28;20221;-78
2023/07/11 09:04:14;;;;;;;3.08;1.23;;;;;;;;;;5132104;28;20907;-77
2023/07/11 09:06:45;;;;;;;5.22;1.30;;;;;;;;;;5132084;27;20645;-77
2023/07/11 09:09:13;;;;;;;3.65;1.45;;;;;;;;;;5132272;28;20676;-78
2023/07/11 09:11:45;;;;;;;4.15;1.40;;;;;;;;;;5132017;28;20225;-78
2023/07/11 09:14:20;;;;;;;3.55;1.30;;;;;;;;;;5132079;28;20251;-78
2023/07/11 09:16:49;;;;;;;2.70;1.33;;;;;;;;;;5132079;28;20299;-78
2023/07/11 09:19:22;;;;;;;2.67;1.10;;;;;;;;;;5133446;27;20559;-78
2023/07/11 09:21:54;;;;;;;2.47;1.30;;;;;;;;;;5135707;27;20291;-78
2023/07/11 09:24:31;;;;;;;2.15;1.10;;;;;;;;;;5135302;27;20279;-78
2023/07/11 09:27:00;;;;;;;3.13;1.30;;;;;;;;;;5134183;27;20689;-77
2023/07/11 09:29:28;;;;;;;3.50;1.20;;;;;;;;;;5135194;27;20250;-76
2023/07/11 09:31:58;;;;;;;3.33;1.30;;;;;;;;;;5134666;27;20288;-78
2023/07/11 09:34:28;;;;;;;3.08;1.10;;;;;;;;;;5134572;27;20241;-78
2023/07/11 09:36:57;;;;;;;2.25;1.20;;;;;;;;;;5134347;27;20655;-78
2023/07/11 09:39:28;;;;;;;3.70;1.45;;;;;;;;;;5134578;27;20238;-78
2023/07/11 09:42:00;;;;;;;3.63;1.17;;;;;;;;;;5134219;27;20193;-77
2023/07/11 09:44:27;;;;;;;2.55;1.38;;;;;;;;;;5134591;27;20186;-78
2023/07/11 09:46:54;;;;;;;2.75;0.90;;;;;;;;;;5133806;27;20736;-77
2023/07/11 09:49:24;;;;;;;3.28;1.17;;;;;;;;;;5134856;27;20284;-77
2023/07/11 09:51:54;;;;;;;2.85;1.20;;;;;;;;;;5133617;27;20312;-78
2023/07/11 09:54:22;;;;;;;2.28;1.23;;;;;;;;;;5131967;27;20760;-78
2023/07/11 09:56:51;;;;;;;2.28;1.13;;;;;;;;;;5134821;27;20203;-77
2023/07/11 09:59:20;;;;;;;3.20;1.40;;;;;;;;;;5135532;27;20284;-77
2023/07/11 10:01:52;;;;;;;2.05;1.05;;;;;;;;;;5135813;27;20193;-78
2023/07/11 10:04:22;;;;;;;6.78;5.07;;;;;;;;;;5135066;27;20197;-78
2023/07/11 10:06:54;;;;;;;3.42;2.38;;;;;;;;;;5135105;27;20193;-77
2023/07/11 10:09:24;;;;;;;2.10;1.10;;;;;;;;;;5135105;27;20201;-77
2023/07/11 10:11:56;;;;;;;1.83;1.00;;;;;;;;;;5135091;27;20193;-78
2023/07/11 10:14:26;;;;;;;3.00;1.10;;;;;;;;;;5135132;27;20800;-78
2023/07/11 10:16:53;;;;;;;2.22;1.00;;;;;;;;;;5134683;27;20675;-76
2023/07/11 10:19:20;;;;;;;4.18;1.17;;;;;;;;;;5134604;27;20645;-78
2023/07/11 10:21:48;;;;;;;2.58;1.10;;;;;;;;;;5135020;27;20288;-78
2023/07/11 10:24:20;;;;;;;3.33;1.45;;;;;;;;;;5134734;27;20242;-78
2023/07/11 10:26:49;;;;;;;2.83;1.20;;;;;;;;;;5134752;27;20272;-78
2023/07/11 10:29:19;;;;;;;2.88;0.98;;;;;;;;;;5134694;27;20724;-79
2023/07/11 10:31:49;;;;;;;3.25;1.27;;;;;;;;;;5136722;27;20341;-78
2023/07/11 10:34:19;;;;;;;2.65;0.95;;;;;;;;;;5150728;27;20670;-77
2023/07/11 10:36:47;;;;;;;2.53;1.05;;;;;;;;;;5128844;27;20189;-77
2023/07/11 10:39:18;;;;;;;1.95;1.05;;;;;;;;;;5147360;27;20284;-76
2023/07/11 10:41:50;;;;;;;3.42;1.60;;;;;;;;;;5138134;27;20207;-79
2023/07/11 10:44:21;;;;;;;2.63;1.20;;;;;;;;;;5139469;27;20736;-77
2023/07/11 10:46:50;;;;;;;4.07;1.20;;;;;;;;;;5121932;27;20225;-77
2023/07/11 10:49:19;;;;;;;1.92;1.20;;;;;;;;;;5147444;27;20288;-77
2023/07/11 10:51:50;;;;;;;6.90;1.83;;;;;;;;;;4773807;27;9999874;-77
2023/07/11 10:54:22;;;;;;;5.85;1.58;;;;;;;;;;5141866;27;20223;-75
2023/07/11 10:56:51;;;;;;;2.55;1.13;;;;;;;;;;5118981;27;20332;-77
2023/07/11 10:59:23;;;;;;;1.55;1.00;;;;;;;;;;5139314;27;20203;-77
2023/07/11 11:01:56;;;;;;;1.45;0.90;;;;;;;;;;5138230;27;20201;-78
2023/07/11 11:04:31;;;;;;;1.40;0.93;;;;;;;;;;5147024;27;20736;-77
2023/07/11 11:07:01;;;;;;;3.92;1.20;;;;;;;;;;5124872;27;20737;-77
2023/07/11 11:09:35;;;;;;;3.80;1.13;;;;;;;;;;5134118;27;20637;-77
2023/07/11 11:12:06;;;;;;;3.85;0.98;;;;;;;;;;5136442;27;20287;-78
2023/07/11 11:14:40;;;;;;;2.88;1.10;;;;;;;;;;5146982;27;20339;-76
2023/07/11 11:17:15;;;;;;;2.20;1.05;;;;;;;;;;5130080;27;20202;-78
2023/07/11 11:19:49;;;;;;;3.20;1.08;;;;;;;;;;5138129;27;20291;-77
2023/07/11 11:22:20;;;;;;;1.23;0.82;;;;;;;;;;5134043;27;20233;-77
2023/07/11 11:24:52;;;;;;;2.22;1.10;;;;;;;;;;5119130;27;20287;-76
2023/07/11 11:27:28;;;;;;;2.55;1.20;;;;;;;;;;5141564;27;20201;-76
2023/07/11 11:30:01;;;;;;;2.72;1.13;;;;;;;;;;5123563;27;20288;-77
2023/07/11 11:32:32;;;;;;;3.35;1.10;;;;;;;;;;5132550;27;20201;-76
2023/07/11 11:35:15;;;;;;;3.20;1.00;;;;;;;;;;4784339;27;10000153;-77
2023/07/11 11:37:47;;;;;;;3.05;1.10;;;;;;;;;;5131950;27;20272;-78
2023/07/11 11:40:16;;;;;;;2.13;1.00;;;;;;;;;;5150965;27;20287;-78
2023/07/11 11:42:45;;;;;;;3.78;1.00;;;;;;;;;;5129487;27;20249;-78
2023/07/11 11:45:18;;;;;;;2.08;0.90;;;;;;;;;;5142275;27;20287;-78
2023/07/11 11:47:46;;;;;;;2.50;1.10;;;;;;;;;;5140174;27;20253;-78
2023/07/11 11:50:15;;;;;;;2.47;1.00;;;;;;;;;;5133940;27;20220;-78
2023/07/11 11:52:44;;;;;;;3.85;1.10;;;;;;;;;;5144184;27;20280;-78
2023/07/11 11:55:24;;;;;;;5.75;0.90;;;;;;;;;;5139181;27;20312;-77
2023/07/11 11:57:51;;;;;;;3.03;1.17;;;;;;;;;;5138714;27;20287;-78
2023/07/11 12:00:34;;;;;;;1.58;0.80;;;;;;;;;;5153547;27;20283;-78
2023/07/11 12:03:01;;;;;;;2.65;0.90;;;;;;;;;;5154113;27;20283;-78
2023/07/11 12:05:28;;;;;;;1.95;0.95;;;;;;;;;;5153394;27;20291;-79
2023/07/11 12:08:11;;;;;;;2.17;1.10;;;;;;;;;;5152380;27;20287;-79
2023/07/11 12:10:38;;;;;;;3.00;1.10;;;;;;;;;;5135939;27;20688;-78
2023/07/11 12:13:18;;;;;;;2.67;1.10;;;;;;;;;;5132377;27;20228;-78
2023/07/11 12:15:49;;;;;;;2.17;0.90;;;;;;;;;;5131711;27;20292;-79
2023/07/11 12:18:27;;;;;;;2.75;1.00;;;;;;;;;;5132111;27;20224;-78
2023/07/11 12:21:07;;;;;;;2.00;1.23;;;;;;;;;;5131980;27;20236;-77
2023/07/11 12:23:35;;;;;;;2.60;1.10;;;;;;;;;;5131926;27;20284;-78
2023/07/11 12:26:13;;;;;;;2.47;1.05;;;;;;;;;;5131565;27;20320;-78
2023/07/11 12:28:41;;;;;;;2.28;0.90;;;;;;;;;;5131833;27;20189;-79
2023/07/11 12:31:17;;;;;;;4.03;1.20;;;;;;;;;;5132253;27;20204;-78
2023/07/11 12:33:45;;;;;;;2.60;1.20;;;;;;;;;;5132516;27;20615;-78
2023/07/11 12:36:25;;;;;;;3.20;1.20;;;;;;;;;;5132177;27;20221;-78
2023/07/11 12:38:57;;;;;;;1.98;1.25;;;;;;;;;;5132995;27;20197;-78
2023/07/11 12:41:28;;;;;;;2.25;1.20;;;;;;;;;;5133059;27;20201;-78
2023/07/11 12:43:56;;;;;;;2.40;1.20;;;;;;;;;;5133563;27;20661;-78
2023/07/11 12:46:26;;;;;;;3.72;1.30;;;;;;;;;;5148756;27;20642;-77
2023/07/11 12:48:54;;;;;;;3.60;1.40;;;;;;;;;;5139070;27;20192;-77
2023/07/11 12:51:26;;;;;;;3.65;1.27;;;;;;;;;;5133264;27;20651;-79
2023/07/11 12:53:54;;;;;;;2.38;1.20;;;;;;;;;;5140312;27;20642;-78
2023/07/11 12:56:21;;;;;;;2.33;1.40;;;;;;;;;;5147190;27;20341;-78
2023/07/11 12:58:49;;;;;;;2.75;1.17;;;;;;;;;;5146841;27;20195;-78
2023/07/11 13:01:17;;;;;;;3.42;1.08;;;;;;;;;;5153220;27;20216;-78
2023/07/11 13:03:46;;;;;;;3.67;1.27;;;;;;;;;;5132915;27;20275;-77
2023/07/11 13:06:19;;;;;;;3.95;1.50;;;;;;;;;;5134004;27;20573;-76
2023/07/11 13:08:47;;;;;;;3.97;1.25;;;;;;;;;;5134526;27;20197;-77
2023/07/11 13:11:21;;;;;;;2.60;1.25;;;;;;;;;;5134952;27;20193;-78
2023/07/11 13:13:48;;;;;;;3.05;1.20;;;;;;;;;;5135705;27;20193;-78
2023/07/11 13:16:16;;;;;;;3.92;1.13;;;;;;;;;;5133869;27;20235;-78
2023/07/11 13:18:44;;;;;;;2.47;1.20;;;;;;;;;;5135244;27;20236;-78
2023/07/11 13:21:12;;;;;;;3.17;1.40;;;;;;;;;;5136016;27;20296;-78
2023/07/11 13:23:41;;;;;;;3.55;1.40;;;;;;;;;;5136415;27;20192;-78
2023/07/11 13:26:09;;;;;;;5.07;1.52;;;;;;;;;;5133774;27;20200;-78
2023/07/11 13:28:38;;;;;;;2.42;1.23;;;;;;;;;;5133451;27;20189;-78
2023/07/11 13:31:06;;;;;;;3.55;1.38;;;;;;;;;;5136149;27;20285;-77
2023/07/11 13:33:34;;;;;;;4.45;1.50;;;;;;;;;;5136655;27;20189;-78
2023/07/11 13:36:04;;;;;;;2.95;1.23;;;;;;;;;;5135723;27;20263;-78
2023/07/11 13:38:39;;;;;;;2.10;1.20;;;;;;;;;;5134966;27;20200;-77
2023/07/11 13:41:06;;;;;;;2.30;1.10;;;;;;;;;;5135011;27;20189;-78
2023/07/11 13:43:33;;;;;;;4.78;1.40;;;;;;;;;;5136078;27;20272;-77
2023/07/11 13:46:01;;;;;;;2.40;1.20;;;;;;;;;;5134674;27;20205;-79
2023/07/11 13:48:29;;;;;;;3.15;1.25;;;;;;;;;;5135497;27;20276;-78
2023/07/11 13:51:17;;;;;;;4.75;1.17;;;;;;;;;;5134362;27;20221;-78
2023/07/11 13:53:47;;;;;;;2.53;1.30;;;;;;;;;;5136058;27;20188;-78
2023/07/11 13:56:15;;;;;;;2.65;1.20;;;;;;;;;;5130970;27;20311;-77
2023/07/11 13:58:42;;;;;;;4.55;1.80;;;;;;;;;;5135328;27;20189;-77
2023/07/11 14:01:13;;;;;;;3.55;1.30;;;;;;;;;;5136126;27;20567;-78
2023/07/11 14:03:40;;;;;;;2.00;0.98;;;;;;;;;;5134488;27;20275;-77
2023/07/11 14:06:12;;;;;;;2.67;1.30;;;;;;;;;;5147318;27;20603;-78
2023/07/11 14:08:39;;;;;;;4.63;1.10;;;;;;;;;;5146910;27;20577;-78
2023/07/11 14:11:13;;;;;;;1.52;1.08;;;;;;;;;;5139920;27;20276;-77
2023/07/11 14:13:41;;;;;;;3.85;1.20;;;;;;;;;;5148306;27;20307;-77
2023/07/11 14:16:09;;;;;;;1.95;1.05;;;;;;;;;;5140838;27;20229;-78
2023/07/11 14:18:36;;;;;;;3.20;1.30;;;;;;;;;;5140393;27;20216;-78
2023/07/11 14:21:04;;;;;;;2.67;1.00;;;;;;;;;;5156208;27;20279;-78
2023/07/11 14:23:31;;;;;;;4.80;1.40;;;;;;;;;;5155481;27;20200;-77
2023/07/11 14:25:58;;;;;;;3.13;1.20;;;;;;;;;;5155146;27;20252;-77
2023/07/11 14:28:27;;;;;;;3.25;1.27;;;;;;;;;;5155604;27;20304;-77
2023/07/11 14:30:56;;;;;;;3.45;1.10;;;;;;;;;;5155392;27;20196;-78
2023/07/11 14:33:25;;;;;;;3.25;1.02;;;;;;;;;;5155733;27;20193;-77
2023/07/11 14:35:52;;;;;;;2.40;1.20;;;;;;;;;;5152431;27;20220;-77
2023/07/11 14:38:21;;;;;;;2.33;1.30;;;;;;;;;;5135979;27;20280;-77
2023/07/11 14:40:49;;;;;;;1.73;0.90;;;;;;;;;;5154228;27;20280;-77
2023/07/11 14:43:17;;;;;;;2.42;0.93;;;;;;;;;;5137761;27;20287;-77
2023/07/11 14:45:46;;;;;;;1.80;0.80;;;;;;;;;;5147361;27;20874;-77
2023/07/11 14:48:15;;;;;;;1.70;0.70;;;;;;;;;;5136926;27;20225;-77
2023/07/11 14:50:42;;;;;;;2.08;0.90;;;;;;;;;;5136029;27;20221;-77